Flight Track Log - Related Links

Times and Time Zones

All times are in EDT time to prevent confusion due to time zone crossing. See the CTL16 flight status page for this flight to view local times or setup timezone preferences in your user account.

Time Position Orientation Groundspeed Altitude Reporting Facility
EDT Latitude Longitude Course Direction KTS MPH feet Rate Location/Type
Tue 08:37:36 PM 39.3833 -84.4667 57° Northeast 146 168 2,000  Level Cincinnati TRACON
Tue 08:38:12 PM 39.4000 -84.4333 57° Northeast 146 168 2,500 594 Climbing Cincinnati TRACON
Tue 08:39:17 PM 39.4175 -84.4006 55° Northeast 158 182 3,000 505 Climbing Indianapolis Center
Tue 08:39:59 PM 39.4400 -84.3694 47° Northeast 173 199 3,400 524 Climbing Indianapolis Center
Tue 08:41:00 PM 39.4717 -84.3289 45° Northeast 165 190 3,900 541 Climbing Indianapolis Center
Tue 08:42:01 PM 39.5061 -84.2833 46° Northeast 164 189 4,500 569 Climbing Indianapolis Center
Tue 08:42:56 PM 39.5367 -84.2536 37° Northeast 158 182 5,000 621 Climbing Indianapolis Center
Tue 08:43:28 PM 39.5553 -84.2406 28° Northeast 159 183 5,400 627 Climbing Indianapolis Center
Tue 08:44:03 PM 39.5792 -84.2286 21° North 149 171 5,700 539 Climbing Indianapolis Center
Tue 08:44:57 PM 39.6153 -84.2078 24° Northeast 150 173 6,200 477 Climbing Indianapolis Center
Tue 08:45:31 PM 39.6322 -84.1956 29° Northeast 152 175 6,400 500 Climbing Indianapolis Center
Tue 08:46:33 PM 39.6719 -84.1736 23° Northeast 152 175 7,000 387 Climbing Indianapolis Center
Tue 08:47:04 PM 39.6961 -84.1594 24° Northeast 155 178 7,000  Level Indianapolis Center
Tue 08:47:34 PM 39.7128 -84.1486 27° Northeast 156 180 7,000  Level Indianapolis Center
Tue 08:48:05 PM 39.7431 -84.1325 22° Northeast 170 196 7,000  Level Indianapolis Center
Tue 08:48:36 PM 39.7569 -84.1228 28° Northeast 164 189 7,000  Level Indianapolis Center
Tue 08:49:06 PM 39.7881 -84.1050 24° Northeast 175 201 7,000  Level Indianapolis Center
Tue 08:49:37 PM 39.8103 -84.0928 23° Northeast 172 198 7,000  Level Indianapolis Center
Tue 08:50:07 PM 39.8328 -84.0800 24° Northeast 178 205 7,000  Level Indianapolis Center
Tue 08:50:39 PM 39.8558 -84.0653 26° Northeast 176 203 7,000  Level Indianapolis Center
Tue 08:51:41 PM 39.9019 -84.0386 24° Northeast 178 205 7,000  Level Indianapolis Center
Tue 08:52:42 PM 39.9489 -84.0150 21° North 178 205 7,000  Level Indianapolis Center
Tue 08:53:44 PM 39.9964 -83.9881 23° Northeast 181 208 7,000  Level Indianapolis Center
Tue 08:54:45 PM 40.0450 -83.9703 16° North 180 207 7,000 -65 Level Indianapolis Center
Tue 08:55:16 PM 40.0719 -83.9664 North 174 200 6,900  Descending Indianapolis Center
Tue 08:55:47 PM 40.0939 -83.9611 10° North 177 204 7,000 65 Climbing Indianapolis Center
Tue 08:56:49 PM 40.1408 -83.9508 10° North 173 199 7,000  Level Indianapolis Center
Tue 08:57:50 PM 40.1878 -83.9406 North 169 194 7,000  Level Indianapolis Center
Tue 08:58:52 PM 40.2356 -83.9306 North 170 196 7,000  Level Indianapolis Center
Tue 08:59:54 PM 40.2814 -83.9181 12° North 169 194 7,000  Level Indianapolis Center
Tue 09:00:55 PM 40.3286 -83.9069 10° North 169 194 7,000  Level Indianapolis Center
Tue 09:01:57 PM 40.3833 -83.8864 16° North 173 199 7,000  Level Indianapolis Center
Tue 09:02:58 PM 40.4289 -83.8625 22° Northeast 174 200 7,000 49 Level Indianapolis Center
Tue 09:04:00 PM 40.4753 -83.8400 20° North 174 200 7,100 97 Climbing Indianapolis Center
Tue 09:05:02 PM 40.5200 -83.8206 18° North 169 194 7,200  Climbing Indianapolis Center
Tue 09:06:03 PM 40.5658 -83.8008 18° North 171 197 7,100 -49 Descending Indianapolis Center
Tue 09:07:05 PM 40.6111 -83.7747 24° Northeast 175 201 7,100  Level Indianapolis Center
Tue 09:08:06 PM 40.6561 -83.7458 26° Northeast 177 204 7,100 49 Level Indianapolis Center
Tue 09:09:08 PM 40.7008 -83.7206 23° Northeast 175 201 7,200  Climbing Indianapolis Center
Tue 09:10:09 PM 40.7456 -83.6897 28° Northeast 178 205 7,100 -98 Descending Indianapolis Center
Tue 09:11:11 PM 40.7739 -83.6308 58° Northeast 191 220 7,000 -49 Descending Indianapolis Center
Tue 09:12:12 PM 40.7997 -83.5672 62° Northeast 194 223 7,000  Level Indianapolis Center
Tue 09:13:14 PM 40.8264 -83.4992 63° Northeast 193 222 7,000  Level Indianapolis Center
Tue 09:14:16 PM 40.8517 -83.4381 61° Northeast 190 219 7,000  Level Indianapolis Center
Tue 09:15:17 PM 40.8778 -83.3758 61° Northeast 190 219 7,000  Level Indianapolis Center
Tue 09:16:19 PM 40.9042 -83.3139 61° Northeast 192 221 7,000  Level Indianapolis Center
Tue 09:17:20 PM 40.9292 -83.2519 62° Northeast 190 219 7,000  Level Indianapolis Center
Tue 09:18:22 PM 40.9542 -83.1892 62° Northeast 189 217 7,000  Level Indianapolis Center
Tue 09:19:23 PM 40.9814 -83.1158 64° Northeast 188 216 7,000  Level Indianapolis Center

Login

Don't have an account? Register now (free) for customized features, flight alerts, and more!